Time;durP1;ratioP1;P1;durP2;ratioP2;P2;SDS_P1;SDS_P2;PMS_P1;PMS_P2;Temp;Humidity;BMP_temperature;BMP_pressure;BME280_temperature;BME280_humidity;BME280_pressure;Samples;Min_cycle;Max_cycle;Signal;HPM_P1;HPM_P2
2022/04/23 00:01:54;;;;;;;;;;;17.30;48.40;;;;;;4957572;28;19925;-90
2022/04/23 00:04:19;;;;;;;;;;;17.30;48.40;;;;;;4976162;28;19922;-90
2022/04/23 00:06:45;;;;;;;;;;;17.30;48.30;;;;;;4976800;28;19984;-90
2022/04/23 00:09:10;;;;;;;;;;;17.30;48.20;;;;;;4976190;28;19918;-90
2022/04/23 00:11:36;;;;;;;;;;;17.30;48.10;;;;;;4958858;28;19914;-90
2022/04/23 00:14:04;;;;;;;;;;;17.30;48.00;;;;;;4957593;28;19922;-90
2022/04/23 00:16:30;;;;;;;;;;;17.30;47.90;;;;;;4976273;28;19925;-90
2022/04/23 00:18:56;;;;;;;;;;;17.30;48.00;;;;;;4959268;28;19922;-91
2022/04/23 00:21:21;;;;;;;;;;;17.30;48.00;;;;;;4975957;28;19929;-89
2022/04/23 00:23:50;;;;;;;;;;;17.20;48.00;;;;;;4958979;28;20606;-90
2022/04/23 00:26:16;;;;;;;;;;;17.20;48.00;;;;;;4958407;28;19914;-91
2022/04/23 00:28:41;;;;;;;;;;;17.20;48.10;;;;;;4975537;28;19965;-90
2022/04/23 00:31:07;;;;;;;;;;;17.20;48.20;;;;;;4968456;28;19924;-89
2022/04/23 00:33:37;;;;;;;;;;;17.30;48.10;;;;;;4922954;29;19919;-90
2022/04/23 00:36:09;;;;;;;;;;;17.30;48.10;;;;;;4939124;29;19945;-90
2022/04/23 00:38:36;;;;;;;;;;;17.30;48.10;;;;;;4939596;29;19956;-90
2022/04/23 00:41:01;;;;;;;;;;;17.30;48.00;;;;;;4940051;29;19924;-92
2022/04/23 00:43:28;;;;;;;;;;;17.30;48.00;;;;;;4956229;29;20302;-91
2022/04/23 00:45:54;;;;;;;;;;;17.30;47.90;;;;;;4956275;29;19929;-90
2022/04/23 00:48:21;;;;;;;;;;;17.40;47.80;;;;;;4939025;29;19926;-90
2022/04/23 00:50:51;;;;;;;;;;;17.40;47.70;;;;;;4939294;29;20324;-91
2022/04/23 00:53:16;;;;;;;;;;;17.50;47.60;;;;;;4939446;29;19961;-91
2022/04/23 00:55:43;;;;;;;;;;;17.50;47.50;;;;;;4940258;29;20043;-91
2022/04/23 00:58:08;;;;;;;;;;;17.60;47.40;;;;;;4939414;29;19919;-91
2022/04/23 01:00:34;;;;;;;;;;;17.50;47.40;;;;;;4952422;28;19938;-91
2022/04/23 01:03:00;;;;;;;;;;;17.60;47.40;;;;;;4972956;28;19926;-91
2022/04/23 01:05:26;;;;;;;;;;;17.60;47.40;;;;;;4985576;28;19926;-90
2022/04/23 01:07:52;;;;;;;;;;;17.60;47.30;;;;;;4978810;28;20278;-91
2022/04/23 01:10:18;;;;;;;;;;;17.60;47.20;;;;;;4964303;28;19925;-91
2022/04/23 01:12:45;;;;;;;;;;;17.60;47.20;;;;;;4960181;28;19922;-91
2022/04/23 01:15:11;;;;;;;;;;;17.60;47.20;;;;;;4960762;28;20361;-91
2022/04/23 01:17:37;;;;;;;;;;;17.60;47.10;;;;;;4960100;28;19937;-91
2022/04/23 01:20:04;;;;;;;;;;;17.60;47.00;;;;;;4959391;28;19956;-91
2022/04/23 01:25:33;;;;;;;;;;;17.50;46.90;;;;;;4977858;28;19917;-90
2022/04/23 01:28:07;;;;;;;;;;;17.50;46.90;;;;;;4979635;28;19915;-90
2022/04/23 01:30:32;;;;;;;;;;;17.50;46.80;;;;;;4962254;28;19918;-90
2022/04/23 01:32:58;;;;;;;;;;;17.50;46.70;;;;;;4962580;28;20044;-91
2022/04/23 01:35:26;;;;;;;;;;;17.60;46.70;;;;;;4961568;28;19914;-90
2022/04/23 01:37:52;;;;;;;;;;;17.50;46.70;;;;;;4961790;28;19922;-90
2022/04/23 01:40:17;;;;;;;;;;;17.50;46.60;;;;;;4961798;28;19965;-90
2022/04/23 01:42:43;;;;;;;;;;;17.50;46.60;;;;;;4979461;28;19922;-90
2022/04/23 01:45:09;;;;;;;;;;;17.50;46.70;;;;;;4962518;28;20481;-89
2022/04/23 01:47:34;;;;;;;;;;;17.40;46.60;;;;;;4961882;28;20347;-90
2022/04/23 01:50:00;;;;;;;;;;;17.40;46.60;;;;;;4961894;28;19914;-90
2022/04/23 01:52:25;;;;;;;;;;;17.30;46.70;;;;;;4981362;28;19925;-91
2022/04/23 01:54:51;;;;;;;;;;;17.30;46.60;;;;;;4963545;28;19925;-90
2022/04/23 01:57:16;;;;;;;;;;;17.40;46.50;;;;;;4980817;28;19933;-90
2022/04/23 01:59:42;;;;;;;;;;;17.30;46.50;;;;;;4962810;28;20005;-90
2022/04/23 02:02:07;;;;;;;;;;;17.40;46.40;;;;;;4980001;28;19922;-90
2022/04/23 02:04:33;;;;;;;;;;;17.30;46.30;;;;;;4980762;28;19914;-91
2022/04/23 02:06:58;;;;;;;;;;;17.30;46.40;;;;;;4963257;28;19911;-91
2022/04/23 02:09:24;;;;;;;;;;;17.40;46.30;;;;;;4962804;28;20239;-91
2022/04/23 02:11:49;;;;;;;;;;;17.30;46.20;;;;;;4961461;28;19911;-91
2022/04/23 02:14:15;;;;;;;;;;;17.30;46.10;;;;;;4980840;28;19925;-91
2022/04/23 02:16:41;;;;;;;;;;;17.30;46.30;;;;;;4979659;28;19918;-89
2022/04/23 02:19:07;;;;;;;;;;;17.30;46.30;;;;;;4963844;28;19918;-90
2022/04/23 02:21:32;;;;;;;;;;;17.30;46.30;;;;;;4966141;28;19969;-90
2022/04/23 02:23:58;;;;;;;;;;;17.30;46.30;;;;;;4962728;28;19914;-90
2022/04/23 02:26:24;;;;;;;;;;;17.40;46.20;;;;;;4979614;28;19914;-91
2022/04/23 02:28:51;;;;;;;;;;;17.30;46.20;;;;;;4962501;28;19953;-91
2022/04/23 02:31:17;;;;;;;;;;;17.30;46.20;;;;;;4946211;28;19918;-91
2022/04/23 02:33:43;;;;;;;;;;;17.30;46.10;;;;;;4979700;28;20260;-90
2022/04/23 02:36:08;;;;;;;;;;;17.30;46.10;;;;;;4961691;28;20808;-91
2022/04/23 02:38:40;;;;;;;;;;;17.30;46.10;;;;;;4977950;28;19922;-91
2022/04/23 02:41:11;;;;;;;;;;;17.30;46.10;;;;;;4980266;28;19971;-91
2022/04/23 02:43:40;;;;;;;;;;;17.30;46.10;;;;;;4945644;28;19922;-91
2022/04/23 02:46:05;;;;;;;;;;;17.30;46.10;;;;;;4963167;28;19918;-90
2022/04/23 02:48:31;;;;;;;;;;;17.30;46.00;;;;;;4979852;28;19914;-91
2022/04/23 02:50:57;;;;;;;;;;;17.30;46.00;;;;;;4962198;28;19925;-90
2022/04/23 02:53:22;;;;;;;;;;;17.30;46.00;;;;;;4960907;28;19910;-91
2022/04/23 02:55:48;;;;;;;;;;;17.30;46.00;;;;;;4960915;28;19966;-91
2022/04/23 02:58:13;;;;;;;;;;;17.30;45.90;;;;;;4941972;29;19915;-92
2022/04/23 03:00:40;;;;;;;;;;;17.20;46.00;;;;;;4941644;29;19915;-91
2022/04/23 03:03:10;;;;;;;;;;;17.30;45.90;;;;;;4944433;29;19918;-89
2022/04/23 03:05:36;;;;;;;;;;;17.30;45.90;;;;;;4959864;28;19946;-91
2022/04/23 03:08:02;;;;;;;;;;;17.30;45.90;;;;;;4943705;29;19961;-91
2022/04/23 03:10:28;;;;;;;;;;;17.30;45.90;;;;;;4943078;29;19914;-91
2022/04/23 03:12:56;;;;;;;;;;;17.30;45.90;;;;;;4941522;29;19929;-91
2022/04/23 03:15:22;;;;;;;;;;;17.30;45.90;;;;;;4943285;29;19907;-90
2022/04/23 03:17:47;;;;;;;;;;;17.20;45.90;;;;;;4941631;29;19930;-91
2022/04/23 03:20:13;;;;;;;;;;;17.20;46.00;;;;;;4941732;29;19911;-91
2022/04/23 03:22:39;;;;;;;;;;;17.20;46.00;;;;;;4942551;29;19945;-90
2022/04/23 03:25:06;;;;;;;;;;;17.20;46.00;;;;;;4924927;29;20255;-91
2022/04/23 03:27:33;;;;;;;;;;;17.20;45.90;;;;;;4960123;28;20038;-91
2022/04/23 03:29:58;;;;;;;;;;;17.20;45.90;;;;;;4960530;29;19938;-91
2022/04/23 03:32:24;;;;;;;;;;;17.20;45.90;;;;;;4942028;29;19926;-90
2022/04/23 03:34:50;;;;;;;;;;;17.20;45.90;;;;;;4959775;29;19911;-91
2022/04/23 03:37:15;;;;;;;;;;;17.20;45.80;;;;;;4943971;29;19930;-91
2022/04/23 03:39:41;;;;;;;;;;;17.20;45.80;;;;;;4958950;28;19919;-91
2022/04/23 03:42:06;;;;;;;;;;;17.10;45.80;;;;;;4958541;29;19919;-91
2022/04/23 03:44:32;;;;;;;;;;;17.20;45.80;;;;;;4943318;29;19922;-91
2022/04/23 03:46:58;;;;;;;;;;;17.10;45.70;;;;;;4942280;29;19919;-90
2022/04/23 03:49:25;;;;;;;;;;;17.20;45.70;;;;;;4942246;29;19915;-91
2022/04/23 03:51:51;;;;;;;;;;;17.10;45.70;;;;;;4947068;28;19915;-91
2022/04/23 03:54:17;;;;;;;;;;;17.10;45.70;;;;;;4972725;28;19914;-90
2022/04/23 03:56:42;;;;;;;;;;;17.10;45.70;;;;;;4992506;28;20138;-91
2022/04/23 03:59:08;;;;;;;;;;;17.10;45.60;;;;;;4960290;28;19995;-91
2022/04/23 04:01:33;;;;;;;;;;;17.00;45.60;;;;;;4959568;28;19969;-92
2022/04/23 04:04:03;;;;;;;;;;;17.00;45.60;;;;;;4978687;28;19980;-91
2022/04/23 04:06:29;;;;;;;;;;;17.00;45.60;;;;;;4977090;28;20452;-90
2022/04/23 04:08:55;;;;;;;;;;;17.00;45.60;;;;;;4960184;28;19953;-92
2022/04/23 04:11:21;;;;;;;;;;;16.90;45.60;;;;;;4961526;28;19921;-91
2022/04/23 04:13:47;;;;;;;;;;;17.00;45.70;;;;;;4963027;28;19914;-90
2022/04/23 04:16:13;;;;;;;;;;;16.90;45.70;;;;;;4960543;28;20275;-91
2022/04/23 04:18:39;;;;;;;;;;;16.90;45.70;;;;;;4960574;28;19914;-90
2022/04/23 04:21:05;;;;;;;;;;;16.90;45.70;;;;;;4960357;28;19914;-90
2022/04/23 04:23:30;;;;;;;;;;;16.90;45.70;;;;;;4960285;28;19914;-91
2022/04/23 04:25:56;;;;;;;;;;;16.90;45.70;;;;;;4977717;28;19922;-91
2022/04/23 04:28:21;;;;;;;;;;;16.90;45.80;;;;;;4959735;28;19914;-91
2022/04/23 04:33:31;;;;;;;;;;;16.90;45.80;;;;;;4976948;28;19920;-91
2022/04/23 04:35:56;;;;;;;;;;;17.00;45.90;;;;;;4978481;28;20353;-91
2022/04/23 04:38:22;;;;;;;;;;;17.10;45.90;;;;;;4977931;28;19972;-91
2022/04/23 04:40:48;;;;;;;;;;;17.10;45.50;;;;;;4975872;28;19919;-91
2022/04/23 04:43:13;;;;;;;;;;;17.20;45.50;;;;;;4976965;28;19911;-91
2022/04/23 04:45:38;;;;;;;;;;;17.30;45.20;;;;;;4960697;28;19918;-91
2022/04/23 04:48:04;;;;;;;;;;;17.30;45.10;;;;;;4959420;28;19957;-91
2022/04/23 04:50:31;;;;;;;;;;;17.30;45.00;;;;;;4974781;28;19922;-91
2022/04/23 04:52:57;;;;;;;;;;;17.40;45.00;;;;;;4959242;28;19910;-91
2022/04/23 04:55:23;;;;;;;;;;;17.40;44.90;;;;;;4958830;28;20013;-91
2022/04/23 04:57:49;;;;;;;;;;;17.50;44.80;;;;;;4976894;28;19949;-91
2022/04/23 05:00:15;;;;;;;;;;;17.60;44.60;;;;;;4960518;28;19925;-89
2022/04/23 05:02:41;;;;;;;;;;;17.70;44.20;;;;;;4961050;28;19970;-91
2022/04/23 05:05:07;;;;;;;;;;;17.80;44.00;;;;;;4980046;28;19922;-91
2022/04/23 05:07:32;;;;;;;;;;;18.00;43.40;;;;;;4980666;28;19964;-92
2022/04/23 05:09:59;;;;;;;;;;;18.10;43.40;;;;;;4963658;28;19936;-92
2022/04/23 05:12:24;;;;;;;;;;;18.30;43.00;;;;;;4963381;28;19918;-92
2022/04/23 05:14:50;;;;;;;;;;;18.40;42.40;;;;;;4963969;28;19914;-90
2022/04/23 05:17:15;;;;;;;;;;;18.60;42.20;;;;;;4963191;28;20390;-91
2022/04/23 05:19:41;;;;;;;;;;;18.70;42.00;;;;;;4963223;28;20052;-91
2022/04/23 05:22:06;;;;;;;;;;;18.80;41.40;;;;;;4979621;28;20012;-91
2022/04/23 05:24:32;;;;;;;;;;;18.90;41.10;;;;;;4963358;28;19919;-92
2022/04/23 05:26:57;;;;;;;;;;;19.00;41.10;;;;;;4963592;28;19925;-91
2022/04/23 05:29:23;;;;;;;;;;;19.00;40.70;;;;;;4964260;28;19945;-91
2022/04/23 05:31:48;;;;;;;;;;;19.10;40.70;;;;;;4963266;28;19914;-92
2022/04/23 05:34:14;;;;;;;;;;;19.10;40.50;;;;;;4961947;28;19927;-90
2022/04/23 05:36:39;;;;;;;;;;;19.10;40.30;;;;;;4964143;28;20009;-90
2022/04/23 05:39:04;;;;;;;;;;;19.20;40.20;;;;;;4981519;28;19926;-91
2022/04/23 05:41:34;;;;;;;;;;;19.30;40.20;;;;;;4980943;28;19914;-92
2022/04/23 05:43:59;;;;;;;;;;;19.40;40.20;;;;;;4981153;28;19953;-90
2022/04/23 05:46:25;;;;;;;;;;;19.50;39.80;;;;;;4964291;28;19937;-91
2022/04/23 05:48:50;;;;;;;;;;;19.60;39.60;;;;;;4964101;28;19914;-90
2022/04/23 05:51:16;;;;;;;;;;;19.70;39.50;;;;;;4964147;28;19948;-91
2022/04/23 05:53:41;;;;;;;;;;;19.80;39.40;;;;;;4963807;28;19926;-91
2022/04/23 05:56:07;;;;;;;;;;;20.00;38.90;;;;;;4981484;28;20495;-91
2022/04/23 05:58:33;;;;;;;;;;;20.20;38.40;;;;;;4981372;28;19984;-91
2022/04/23 06:00:59;;;;;;;;;;;20.40;38.40;;;;;;4982011;28;19910;-93
2022/04/23 06:03:24;;;;;;;;;;;20.60;38.40;;;;;;4964530;28;20056;-92
2022/04/23 06:05:50;;;;;;;;;;;20.70;37.20;;;;;;4981790;28;19921;-91
2022/04/23 06:08:16;;;;;;;;;;;20.80;37.00;;;;;;4964976;28;19922;-91
2022/04/23 06:10:41;;;;;;;;;;;20.90;36.80;;;;;;4981110;28;19922;-92
2022/04/23 06:13:08;;;;;;;;;;;21.00;36.70;;;;;;4964061;28;19973;-92
2022/04/23 06:15:34;;;;;;;;;;;21.10;36.30;;;;;;4963799;28;19985;-92
2022/04/23 06:17:59;;;;;;;;;;;21.30;36.20;;;;;;4981323;28;19957;-91
2022/04/23 06:20:25;;;;;;;;;;;21.30;35.80;;;;;;4964101;28;19961;-91
2022/04/23 06:22:50;;;;;;;;;;;21.50;35.40;;;;;;4981691;28;19925;-91
2022/04/23 06:25:16;;;;;;;;;;;21.60;35.40;;;;;;4964289;28;19977;-90
2022/04/23 06:27:41;;;;;;;;;;;21.70;34.90;;;;;;4986215;28;19914;-91
2022/04/23 06:30:10;;;;;;;;;;;21.80;34.40;;;;;;4967191;28;19953;-91
2022/04/23 06:32:39;;;;;;;;;;;21.80;34.30;;;;;;4964836;28;19914;-91
2022/04/23 06:35:05;;;;;;;;;;;22.00;34.50;;;;;;4981084;28;20009;-91
2022/04/23 06:37:47;;;;;;;;;;;22.20;34.30;;;;;;4961484;28;19919;-91
2022/04/23 06:40:13;;;;;;;;;;;22.30;34.00;;;;;;4963120;28;20289;-91
2022/04/23 06:42:39;;;;;;;;;;;22.50;33.80;;;;;;4963185;28;19952;-91
2022/04/23 06:45:05;;;;;;;;;;;22.50;33.20;;;;;;4979975;28;19918;-92
2022/04/23 06:47:30;;;;;;;;;;;22.70;33.30;;;;;;4963610;28;20475;-91
2022/04/23 06:49:56;;;;;;;;;;;22.80;32.80;;;;;;4980788;28;19910;-91
2022/04/23 06:52:22;;;;;;;;;;;22.90;32.40;;;;;;4980786;28;19918;-92
2022/04/23 06:54:47;;;;;;;;;;;23.00;32.50;;;;;;4980674;28;20393;-91
2022/04/23 06:57:13;;;;;;;;;;;23.20;32.70;;;;;;4979519;28;19922;-91
2022/04/23 06:59:38;;;;;;;;;;;23.40;32.50;;;;;;4962885;28;19914;-93
2022/04/23 07:02:04;;;;;;;;;;;23.70;31.70;;;;;;4963232;28;19918;-92
2022/04/23 07:04:29;;;;;;;;;;;24.00;31.70;;;;;;4979955;28;19914;-91
2022/04/23 07:06:55;;;;;;;;;;;24.30;31.60;;;;;;4967950;28;19919;-92
2022/04/23 07:09:20;;;;;;;;;;;24.70;30.80;;;;;;4943719;29;19914;-92
2022/04/23 07:11:47;;;;;;;;;;;24.90;30.40;;;;;;4942320;29;20310;-92
2022/04/23 07:14:12;;;;;;;;;;;25.10;29.50;;;;;;4943631;29;20387;-92
2022/04/23 07:16:39;;;;;;;;;;;25.30;29.50;;;;;;4942510;29;19914;-90
2022/04/23 07:19:07;;;;;;;;;;;25.50;29.20;;;;;;4942513;29;19950;-92
2022/04/23 07:21:38;;;;;;;;;;;25.70;28.60;;;;;;4943064;29;20363;-93
2022/04/23 07:24:05;;;;;;;;;;;25.90;27.90;;;;;;4942869;29;19921;-92
2022/04/23 07:26:31;;;;;;;;;;;26.00;28.30;;;;;;4943684;29;19917;-92
2022/04/23 07:28:57;;;;;;;;;;;26.20;27.90;;;;;;4942595;29;20359;-93
2022/04/23 07:31:23;;;;;;;;;;;26.40;27.20;;;;;;4942381;29;19902;-92
2022/04/23 07:39:17;;;;;;;;;;;26.70;26.90;;;;;;4960147;29;20011;-93
2022/04/23 07:41:43;;;;;;;;;;;26.70;26.60;;;;;;4960972;29;20383;-92
2022/04/23 07:44:09;;;;;;;;;;;26.80;26.10;;;;;;4960774;29;19914;-92
2022/04/23 07:46:34;;;;;;;;;;;26.70;26.10;;;;;;4942519;29;20250;-91
2022/04/23 07:49:00;;;;;;;;;;;26.70;26.20;;;;;;4942495;29;20407;-91
2022/04/23 07:51:28;;;;;;;;;;;26.70;26.30;;;;;;4941442;29;19914;-91
2022/04/23 07:53:54;;;;;;;;;;;26.80;26.40;;;;;;4961538;29;19934;-91
2022/04/23 07:56:20;;;;;;;;;;;26.90;25.80;;;;;;4943801;29;19922;-92
2022/04/23 07:58:46;;;;;;;;;;;27.00;25.80;;;;;;4941892;29;19925;-93
2022/04/23 08:01:11;;;;;;;;;;;27.00;25.90;;;;;;4945331;29;19953;-92
2022/04/23 08:03:37;;;;;;;;;;;27.10;25.90;;;;;;4963543;29;20278;-93
2022/04/23 08:06:02;;;;;;;;;;;27.20;25.00;;;;;;4962135;29;20344;-92
2022/04/23 08:08:28;;;;;;;;;;;27.30;24.70;;;;;;4945260;28;20413;-91
2022/04/23 08:10:53;;;;;;;;;;;27.30;24.50;;;;;;4944035;29;19918;-93
2022/04/23 08:13:20;;;;;;;;;;;27.40;24.20;;;;;;4945336;29;19921;-92
2022/04/23 08:15:46;;;;;;;;;;;27.40;24.40;;;;;;4945322;29;19915;-92
2022/04/23 08:18:12;;;;;;;;;;;27.30;23.90;;;;;;4943746;29;19923;-91
2022/04/23 08:20:41;;;;;;;;;;;27.20;23.60;;;;;;4942524;29;19914;-92
2022/04/23 08:23:07;;;;;;;;;;;27.20;23.80;;;;;;4943458;29;20264;-90
2022/04/23 08:25:32;;;;;;;;;;;27.10;23.70;;;;;;4962643;29;19926;-92
2022/04/23 08:30:34;;;;;;;;;;;27.10;23.70;;;;;;4943407;29;19922;-91
2022/04/23 08:30:43;;;;;;;;;;;27.10;23.60;;;;;;4961602;29;19926;-91
2022/04/23 08:33:08;;;;;;;;;;;27.20;23.80;;;;;;4960809;29;19949;-91
2022/04/23 08:35:35;;;;;;;;;;;27.30;23.70;;;;;;4941871;29;20053;-92
2022/04/23 08:38:01;;;;;;;;;;;27.30;23.30;;;;;;4960048;29;19996;-92
2022/04/23 08:40:29;;;;;;;;;;;27.40;23.40;;;;;;4942667;29;19910;-92
2022/04/23 08:42:55;;;;;;;;;;;27.50;23.40;;;;;;4941926;29;19915;-91
2022/04/23 08:45:21;;;;;;;;;;;27.50;23.30;;;;;;4942377;29;19961;-91
2022/04/23 08:47:46;;;;;;;;;;;27.50;22.90;;;;;;4942021;29;20355;-92
2022/04/23 08:50:15;;;;;;;;;;;27.50;22.90;;;;;;4959178;29;19910;-91
2022/04/23 08:52:42;;;;;;;;;;;27.30;23.10;;;;;;4943095;29;19922;-92
2022/04/23 08:55:07;;;;;;;;;;;27.30;23.10;;;;;;4960217;29;20383;-91
2022/04/23 08:57:33;;;;;;;;;;;27.20;23.00;;;;;;4941977;29;19930;-92
2022/04/23 08:59:59;;;;;;;;;;;27.20;23.10;;;;;;4941782;29;19914;-91
2022/04/23 09:02:26;;;;;;;;;;;27.30;23.50;;;;;;4941225;29;19911;-92
2022/04/23 09:04:54;;;;;;;;;;;27.30;23.00;;;;;;4942949;29;19919;-92
2022/04/23 09:07:24;;;;;;;;;;;27.20;23.20;;;;;;4942175;29;20248;-92
2022/04/23 09:09:51;;;;;;;;;;;27.20;22.90;;;;;;4942429;29;19918;-91
2022/04/23 09:12:17;;;;;;;;;;;27.20;23.00;;;;;;4941982;29;19910;-92
2022/04/23 09:14:45;;;;;;;;;;;27.10;23.10;;;;;;4959400;29;19926;-91
2022/04/23 09:25:31;;;;;;;;;;;27.40;22.80;;;;;;4958610;29;19925;-91
2022/04/23 09:27:56;;;;;;;;;;;27.50;22.90;;;;;;4941802;29;20047;-91
2022/04/23 09:30:22;;;;;;;;;;;27.70;22.70;;;;;;4941124;29;20379;-92
2022/04/23 09:32:57;;;;;;;;;;;27.70;22.50;;;;;;4958835;29;20310;-91
2022/04/23 09:35:23;;;;;;;;;;;27.90;22.30;;;;;;4958710;29;20318;-92
2022/04/23 09:40:36;;;;;;;;;;;28.40;21.70;;;;;;4971333;28;19921;-95
2022/04/23 09:43:02;;;;;;;;;;;28.50;21.40;;;;;;4943593;28;19918;-92
2022/04/23 09:45:29;;;;;;;;;;;28.70;21.60;;;;;;4959692;28;19918;-92
2022/04/23 09:47:55;;;;;;;;;;;28.90;21.20;;;;;;4962296;28;20305;-92
2022/04/23 09:50:21;;;;;;;;;;;29.00;20.90;;;;;;4961242;28;19925;-91
2022/04/23 09:52:46;;;;;;;;;;;29.00;20.60;;;;;;4977789;28;19915;-92
2022/04/23 09:55:12;;;;;;;;;;;29.10;20.20;;;;;;4978565;28;20012;-92
2022/04/23 09:57:38;;;;;;;;;;;28.80;20.00;;;;;;4961525;28;19922;-92
2022/04/23 10:00:05;;;;;;;;;;;28.70;20.40;;;;;;4961463;28;20334;-93
2022/04/23 10:02:30;;;;;;;;;;;28.60;20.70;;;;;;4962368;28;19930;-91
2022/04/23 10:04:56;;;;;;;;;;;28.70;21.00;;;;;;4962734;28;19946;-91
2022/04/23 10:07:24;;;;;;;;;;;28.90;20.70;;;;;;4962606;28;19914;-92
2022/04/23 10:09:50;;;;;;;;;;;29.10;20.60;;;;;;4981074;28;19925;-91
2022/04/23 10:12:17;;;;;;;;;;;29.20;20.50;;;;;;4951587;28;19919;-90
2022/04/23 10:14:46;;;;;;;;;;;28.90;19.90;;;;;;4962189;28;20370;-90
2022/04/23 10:17:16;;;;;;;;;;;29.00;19.90;;;;;;4961485;28;19949;-91
2022/04/23 10:19:42;;;;;;;;;;;28.90;19.90;;;;;;4959620;29;19919;-90
2022/04/23 10:22:21;;;;;;;;;;;28.70;19.70;;;;;;4941380;29;19921;-92
2022/04/23 10:24:47;;;;;;;;;;;28.50;20.00;;;;;;4960056;29;19918;-91
2022/04/23 10:27:14;;;;;;;;;;;28.50;20.20;;;;;;4959400;29;20298;-92
2022/04/23 10:29:39;;;;;;;;;;;28.50;20.20;;;;;;4958415;29;20318;-91
2022/04/23 10:32:19;;;;;;;;;;;28.80;20.20;;;;;;4959425;29;19919;-92
2022/04/23 10:34:45;;;;;;;;;;;28.70;20.20;;;;;;4942066;29;19914;-92
2022/04/23 10:37:14;;;;;;;;;;;28.80;19.90;;;;;;4960233;29;19929;-92
2022/04/23 10:39:42;;;;;;;;;;;28.80;20.00;;;;;;4944371;29;19946;-89
2022/04/23 10:42:14;;;;;;;;;;;28.70;20.00;;;;;;4943256;29;19978;-91
2022/04/23 10:44:40;;;;;;;;;;;28.70;20.20;;;;;;4942736;29;19917;-92
2022/04/23 10:47:28;;;;;;;;;;;28.80;20.40;;;;;;4941072;29;19968;-91
2022/04/23 10:50:29;;;;;;;;;;;28.70;20.40;;;;;;4935902;29;20367;-92
2022/04/23 10:53:01;;;;;;;;;;;29.00;20.50;;;;;;4904107;29;19911;-92
2022/04/23 10:55:26;;;;;;;;;;;29.30;20.20;;;;;;4936709;29;19919;-91
2022/04/23 10:57:57;;;;;;;;;;;29.40;19.90;;;;;;4959519;28;19942;-93
2022/04/23 11:00:24;;;;;;;;;;;29.50;19.90;;;;;;4960023;29;19940;-92
2022/04/23 11:03:10;;;;;;;;;;;29.60;19.30;;;;;;4942744;29;19917;-91
2022/04/23 11:14:22;;;;;;;;;;;29.40;19.30;;;;;;4949715;29;20278;-90
2022/04/23 11:16:55;;;;;;;;;;;29.30;19.70;;;;;;4948132;29;19922;-92
2022/04/23 11:19:20;;;;;;;;;;;29.50;19.70;;;;;;4964334;28;19953;-91
2022/04/23 11:21:48;;;;;;;;;;;29.70;19.40;;;;;;4965463;28;19925;-91
2022/04/23 11:24:17;;;;;;;;;;;29.70;19.20;;;;;;4961611;29;19918;-91
2022/04/23 11:26:47;;;;;;;;;;;29.60;19.20;;;;;;4980065;28;20302;-91
2022/04/23 11:29:25;;;;;;;;;;;29.70;19.10;;;;;;4985245;28;19933;-92
2022/04/23 11:31:56;;;;;;;;;;;29.80;19.40;;;;;;4983815;28;19949;-90
2022/04/23 11:34:27;;;;;;;;;;;29.80;19.10;;;;;;4967339;28;19910;-92
2022/04/23 11:36:53;;;;;;;;;;;29.70;19.30;;;;;;4965819;28;19950;-91
2022/04/23 11:39:25;;;;;;;;;;;29.80;19.50;;;;;;4979521;28;19914;-91
2022/04/23 11:41:51;;;;;;;;;;;29.80;19.10;;;;;;4963136;28;19918;-91
2022/04/23 11:47:30;;;;;;;;;;;29.80;18.80;;;;;;4957925;28;19949;-90
2022/04/23 11:50:06;;;;;;;;;;;29.80;18.70;;;;;;4962901;28;19997;-91
2022/04/23 11:52:31;;;;;;;;;;;30.00;18.50;;;;;;4963881;28;19918;-91
2022/04/23 11:54:59;;;;;;;;;;;30.20;17.90;;;;;;4963880;28;19925;-91
2022/04/23 11:57:25;;;;;;;;;;;30.00;17.90;;;;;;4963271;28;19923;-91
2022/04/23 11:59:51;;;;;;;;;;;29.80;17.70;;;;;;4980264;28;19914;-91
2022/04/23 12:02:18;;;;;;;;;;;29.80;17.80;;;;;;4962156;28;19922;-91
2022/04/23 12:04:44;;;;;;;;;;;29.80;17.90;;;;;;4963330;28;19918;-90
2022/04/23 12:07:10;;;;;;;;;;;29.80;18.20;;;;;;4983313;28;19930;-89
2022/04/23 12:09:50;;;;;;;;;;;29.80;17.90;;;;;;4984990;28;19918;-90
2022/04/23 12:12:20;;;;;;;;;;;29.70;17.10;;;;;;4979540;28;19978;-90
2022/04/23 12:14:47;;;;;;;;;;;29.50;17.30;;;;;;4963575;28;19914;-92
2022/04/23 12:17:30;;;;;;;;;;;29.40;17.10;;;;;;4986949;28;19922;-91
2022/04/23 12:19:56;;;;;;;;;;;29.30;17.00;;;;;;4970522;28;19921;-91
2022/04/23 12:22:31;;;;;;;;;;;29.30;17.20;;;;;;4963721;28;19915;-90
2022/04/23 12:25:10;;;;;;;;;;;29.80;17.80;;;;;;4966011;28;19922;-92
2022/04/23 12:27:51;;;;;;;;;;;30.20;17.80;;;;;;4973554;28;19918;-90
2022/04/23 12:41:23;;;;;;;;;;;29.50;16.70;;;;;;4980650;28;19925;-91
2022/04/23 12:43:49;;;;;;;;;;;29.10;17.00;;;;;;4967446;28;19914;-91
2022/04/23 12:46:14;;;;;;;;;;;29.00;17.10;;;;;;4962143;29;19970;-93
2022/04/23 12:48:56;;;;;;;;;;;28.90;17.30;;;;;;4945675;29;19915;-91
2022/04/23 12:51:21;;;;;;;;;;;28.70;17.30;;;;;;4943741;29;19988;-91
2022/04/23 12:53:46;;;;;;;;;;;28.50;18.00;;;;;;4944780;29;19922;-91
2022/04/23 12:56:12;;;;;;;;;;;28.70;18.00;;;;;;4944309;29;19928;-92
2022/04/23 12:58:38;;;;;;;;;;;28.80;17.70;;;;;;4945376;29;19922;-92
2022/04/23 13:01:04;;;;;;;;;;;29.00;17.70;;;;;;4930216;29;19929;-92
2022/04/23 13:05:59;;;;;;;;;;;28.70;17.20;;;;;;4962570;29;19915;-92
2022/04/23 13:11:24;;;;;;;;;;;28.30;17.60;;;;;;4962804;29;20401;-93
2022/04/23 13:13:50;;;;;;;;;;;28.30;18.30;;;;;;4945268;29;19918;-92
2022/04/23 13:16:16;;;;;;;;;;;28.30;18.20;;;;;;4961138;29;19918;-92
2022/04/23 13:18:41;;;;;;;;;;;28.40;18.00;;;;;;4943235;29;19930;-91
2022/04/23 13:21:10;;;;;;;;;;;28.40;17.70;;;;;;4944424;29;19925;-91
2022/04/23 13:23:36;;;;;;;;;;;28.30;17.80;;;;;;4946334;29;19929;-92
2022/04/23 13:26:02;;;;;;;;;;;28.40;17.90;;;;;;4946158;29;19954;-92
2022/04/23 13:28:27;;;;;;;;;;;28.50;17.70;;;;;;4947751;29;19927;-92
2022/04/23 13:30:52;;;;;;;;;;;28.40;17.40;;;;;;4963001;29;19978;-92
2022/04/23 13:33:18;;;;;;;;;;;28.30;17.60;;;;;;4956166;28;19922;-91
2022/04/23 13:35:44;;;;;;;;;;;28.20;17.50;;;;;;4984462;28;19991;-91
2022/04/23 13:38:13;;;;;;;;;;;28.00;17.50;;;;;;4965675;28;20409;-91
2022/04/23 13:40:39;;;;;;;;;;;27.60;17.70;;;;;;4964886;28;19949;-93
2022/04/23 13:43:04;;;;;;;;;;;27.50;17.80;;;;;;4982483;28;19972;-91
2022/04/23 13:45:31;;;;;;;;;;;27.50;17.80;;;;;;4966000;28;19918;-90
2022/04/23 13:48:00;;;;;;;;;;;27.40;18.30;;;;;;4982580;28;19929;-91
2022/04/23 13:50:25;;;;;;;;;;;27.50;18.30;;;;;;4964820;28;20305;-92
2022/04/23 13:52:51;;;;;;;;;;;27.20;18.20;;;;;;4982697;28;19957;-91
2022/04/23 13:55:16;;;;;;;;;;;26.90;18.90;;;;;;4948479;28;19926;-90
2022/04/23 13:57:42;;;;;;;;;;;26.50;19.10;;;;;;4962033;28;19930;-91
2022/04/23 14:00:08;;;;;;;;;;;26.10;19.50;;;;;;4963536;28;19929;-90
2022/04/23 14:10:46;;;;;;;;;;;24.30;21.10;;;;;;4980980;28;20489;-93
2022/04/23 14:13:12;;;;;;;;;;;23.90;21.40;;;;;;4965287;28;20024;-94
2022/04/23 14:15:37;;;;;;;;;;;23.70;21.60;;;;;;4984518;28;19914;-91
2022/04/23 14:18:03;;;;;;;;;;;23.40;21.80;;;;;;4966172;28;19926;-90
2022/04/23 14:20:29;;;;;;;;;;;23.20;21.80;;;;;;4965687;28;19914;-91
2022/04/23 14:22:55;;;;;;;;;;;23.00;22.20;;;;;;4965614;28;19919;-91
2022/04/23 14:25:21;;;;;;;;;;;22.80;22.60;;;;;;4986454;28;19925;-93
2022/04/23 14:27:47;;;;;;;;;;;22.80;22.60;;;;;;4975132;28;19922;-92
2022/04/23 14:30:16;;;;;;;;;;;22.70;22.70;;;;;;4975126;28;20004;-91
2022/04/23 14:32:41;;;;;;;;;;;22.70;22.90;;;;;;4973619;28;19910;-91
2022/04/23 14:35:07;;;;;;;;;;;22.70;23.10;;;;;;4986973;28;19919;-92
2022/04/23 14:37:33;;;;;;;;;;;22.70;22.90;;;;;;4964844;28;19965;-92
2022/04/23 14:39:59;;;;;;;;;;;22.60;22.80;;;;;;4965452;28;20009;-91
2022/04/23 14:42:24;;;;;;;;;;;22.60;23.10;;;;;;4963429;28;20335;-92
2022/04/23 14:44:50;;;;;;;;;;;22.60;23.00;;;;;;4968243;28;19914;-92
2022/04/23 14:47:16;;;;;;;;;;;22.50;23.20;;;;;;4981630;28;20000;-92
2022/04/23 14:49:41;;;;;;;;;;;22.30;23.30;;;;;;4964198;28;19969;-91
2022/04/23 14:54:51;;;;;;;;;;;22.40;23.50;;;;;;4982479;28;19924;-91
2022/04/23 14:57:16;;;;;;;;;;;22.30;23.90;;;;;;4965431;28;19957;-91
2022/04/23 14:59:42;;;;;;;;;;;22.30;24.00;;;;;;4964783;28;19927;-92
2022/04/23 15:02:07;;;;;;;;;;;22.40;23.90;;;;;;4963629;28;19918;-92
2022/04/23 15:04:33;;;;;;;;;;;22.30;24.30;;;;;;4979965;28;20358;-92
2022/04/23 15:06:58;;;;;;;;;;;22.40;24.20;;;;;;4964167;28;20016;-93
2022/04/23 15:09:24;;;;;;;;;;;22.40;24.10;;;;;;4962405;28;19922;-92
2022/04/23 15:11:50;;;;;;;;;;;22.40;24.00;;;;;;4961628;28;19898;-91
2022/04/23 15:14:15;;;;;;;;;;;22.50;24.10;;;;;;4980692;28;19958;-91
2022/04/23 15:16:40;;;;;;;;;;;22.30;24.30;;;;;;4981317;28;19914;-91